Skip Navigation Links Skip Navigation Links

Current Weather

Greater Rockford, Rockford, Ill.

For information only: do not use for flight planning or navigation.
Latest weather
Observation time Tuesday, December 1, 2020 7:54 AM CST
Local time Tuesday, December 1, 2020 8:45 AM CST
Flight conditions Visual Meteorological Conditions
Winds
Wind direction North-Northwest (330°)
Wind speed 8 mph
Visibility 10 mi.
Sky condition
Ceiling unlimited
Sky clear
Temperature 21°F
Dewpoint 13°F
Altimeter 30.10 in.Hg
Derived measurements
Relative humidity 70%
Wind chill 11°F
Density altitude -2033 ft.
Sea-level pressure 30.13 in.Hg
Remarks
Automated weather observing station with precipitation discriminator.
METAR KRFD 011354Z 33007KT 10SM CLR M06/M11 A3010 RMK AO2 SLP203 T10611106

Settings

Location code

InnerDrive.Weather 4.0.6770.0 Release CLR 4.0.30319.42000
Copyright ©2018 Inner Drive Technology. All rights reserved. Portions Copyright ©1986-2018 David Braverman.

Find weather

Site navigation


Skip Navigation Links

Place info

Page info

PayPal - The safer, easier way to pay online!

Return home.

Copyright ©2020 Inner Drive Technology. Purveyors of fine, hand-crafted computer software. Page printed 2020-12-01T14:45:03 UTC.